sensor_id;sensor_type;location;lat;lon;timestamp;pressure;altitude;pressure_sealevel;temperature;humidity
5996;BME280;3026;53.612;7.278;2024-01-07T00:02:06;102001.16;;;0.06;100.00
5996;BME280;3026;53.612;7.278;2024-01-07T00:04:35;102002.03;;;0.07;100.00
5996;BME280;3026;53.612;7.278;2024-01-07T00:07:04;102009.13;;;0.08;100.00
5996;BME280;3026;53.612;7.278;2024-01-07T00:09:31;102010.06;;;0.07;100.00
5996;BME280;3026;53.612;7.278;2024-01-07T00:11:58;102015.44;;;0.07;100.00
5996;BME280;3026;53.612;7.278;2024-01-07T00:14:25;102014.50;;;0.08;100.00
5996;BME280;3026;53.612;7.278;2024-01-07T00:16:58;102019.00;;;0.07;100.00
5996;BME280;3026;53.612;7.278;2024-01-07T00:19:26;102019.00;;;0.07;100.00
5996;BME280;3026;53.612;7.278;2024-01-07T00:22:03;102022.53;;;0.08;100.00
5996;BME280;3026;53.612;7.278;2024-01-07T00:24:30;102022.53;;;0.08;100.00
5996;BME280;3026;53.612;7.278;2024-01-07T00:26:57;102031.38;;;0.10;100.00
5996;BME280;3026;53.612;7.278;2024-01-07T00:29:27;102032.19;;;0.12;100.00
5996;BME280;3026;53.612;7.278;2024-01-07T00:31:54;102036.66;;;0.11;100.00
5996;BME280;3026;53.612;7.278;2024-01-07T00:34:21;102045.59;;;0.12;100.00
5996;BME280;3026;53.612;7.278;2024-01-07T00:36:49;102030.38;;;0.12;100.00
5996;BME280;3026;53.612;7.278;2024-01-07T00:39:17;102041.16;;;0.11;100.00
5996;BME280;3026;53.612;7.278;2024-01-07T00:41:46;102046.50;;;0.11;100.00
5996;BME280;3026;53.612;7.278;2024-01-07T00:44:13;102048.28;;;0.12;100.00
5996;BME280;3026;53.612;7.278;2024-01-07T00:46:45;102050.03;;;0.13;100.00
5996;BME280;3026;53.612;7.278;2024-01-07T00:49:12;102048.28;;;0.12;100.00
5996;BME280;3026;53.612;7.278;2024-01-07T00:51:40;102062.59;;;0.11;100.00
5996;BME280;3026;53.612;7.278;2024-01-07T00:54:08;102060.75;;;0.13;100.00
5996;BME280;3026;53.612;7.278;2024-01-07T00:56:37;102064.38;;;0.12;100.00
5996;BME280;3026;53.612;7.278;2024-01-07T00:59:10;102066.13;;;0.13;100.00
5996;BME280;3026;53.612;7.278;2024-01-07T01:01:37;102067.84;;;0.14;100.00
5996;BME280;3026;53.612;7.278;2024-01-07T01:04:04;102069.59;;;0.15;100.00
5996;BME280;3026;53.612;7.278;2024-01-07T01:06:32;102077.63;;;0.15;100.00
5996;BME280;3026;53.612;7.278;2024-01-07T01:08:59;102080.31;;;0.15;100.00
5996;BME280;3026;53.612;7.278;2024-01-07T01:11:26;102066.03;;;0.14;100.00
5996;BME280;3026;53.612;7.278;2024-01-07T01:13:55;102074.06;;;0.14;100.00
5996;BME280;3026;53.612;7.278;2024-01-07T01:16:24;102077.72;;;0.13;100.00
5996;BME280;3026;53.612;7.278;2024-01-07T01:18:51;102076.84;;;0.13;100.00
5996;BME280;3026;53.612;7.278;2024-01-07T01:21:18;102089.44;;;0.11;100.00
5996;BME280;3026;53.612;7.278;2024-01-07T01:23:48;102082.34;;;0.10;100.00
5996;BME280;3026;53.612;7.278;2024-01-07T01:26:15;102086.81;;;0.09;100.00
5996;BME280;3026;53.612;7.278;2024-01-07T01:28:43;102096.69;;;0.09;100.00
5996;BME280;3026;53.612;7.278;2024-01-07T01:31:14;102099.38;;;0.09;100.00
5996;BME280;3026;53.612;7.278;2024-01-07T01:33:44;102102.06;;;0.09;100.00
5996;BME280;3026;53.612;7.278;2024-01-07T01:36:12;102109.31;;;0.07;100.00
5996;BME280;3026;53.612;7.278;2024-01-07T01:38:40;102109.38;;;0.05;100.00
5996;BME280;3026;53.612;7.278;2024-01-07T01:41:07;102100.56;;;0.03;100.00
5996;BME280;3026;53.612;7.278;2024-01-07T01:43:35;102122.94;;;0.02;100.00
5996;BME280;3026;53.612;7.278;2024-01-07T01:46:03;102126.56;;;0.01;100.00
5996;BME280;3026;53.612;7.278;2024-01-07T01:48:33;102131.06;;;0.01;100.00
5996;BME280;3026;53.612;7.278;2024-01-07T01:51:01;102127.56;;;-0.02;100.00
5996;BME280;3026;53.612;7.278;2024-01-07T01:53:28;102125.84;;;-0.03;100.00
5996;BME280;3026;53.612;7.278;2024-01-07T01:55:57;102129.47;;;-0.04;100.00
5996;BME280;3026;53.612;7.278;2024-01-07T01:58:31;102136.56;;;-0.03;100.00
5996;BME280;3026;53.612;7.278;2024-01-07T02:01:00;102147.28;;;-0.03;100.00
5996;BME280;3026;53.612;7.278;2024-01-07T02:03:33;102148.22;;;-0.04;100.00
5996;BME280;3026;53.612;7.278;2024-01-07T02:06:06;102158.00;;;-0.03;100.00
5996;BME280;3026;53.612;7.278;2024-01-07T02:08:34;102145.56;;;-0.04;100.00
5996;BME280;3026;53.612;7.278;2024-01-07T02:11:14;102162.44;;;-0.02;100.00
5996;BME280;3026;53.612;7.278;2024-01-07T02:13:43;102166.84;;;-0.01;100.00
5996;BME280;3026;53.612;7.278;2024-01-07T02:16:12;102158.00;;;-0.03;100.00
5996;BME280;3026;53.612;7.278;2024-01-07T02:18:43;102169.69;;;-0.04;100.00
5996;BME280;3026;53.612;7.278;2024-01-07T02:21:11;102173.22;;;-0.03;100.00
5996;BME280;3026;53.612;7.278;2024-01-07T02:23:40;102165.25;;;-0.05;100.00
5996;BME280;3026;53.612;7.278;2024-01-07T02:26:08;102170.63;;;-0.05;100.00
5996;BME280;3026;53.612;7.278;2024-01-07T02:28:36;102176.00;;;-0.05;100.00
5996;BME280;3026;53.612;7.278;2024-01-07T02:31:03;102175.19;;;-0.07;100.00
5996;BME280;3026;53.612;7.278;2024-01-07T02:33:33;102186.72;;;-0.05;100.00
5996;BME280;3026;53.612;7.278;2024-01-07T02:36:03;102181.34;;;-0.05;100.00
5996;BME280;3026;53.612;7.278;2024-01-07T02:38:30;102177.72;;;-0.04;100.00
5996;BME280;3026;53.612;7.278;2024-01-07T02:40:58;102182.16;;;-0.03;100.00
5996;BME280;3026;53.612;7.278;2024-01-07T02:43:27;102188.31;;;-0.01;100.00
5996;BME280;3026;53.612;7.278;2024-01-07T02:45:54;102184.72;;;0.01;100.00
5996;BME280;3026;53.612;7.278;2024-01-07T02:48:22;102185.50;;;0.03;100.00
5996;BME280;3026;53.612;7.278;2024-01-07T02:50:50;102184.56;;;0.04;100.00
5996;BME280;3026;53.612;7.278;2024-01-07T02:53:19;102184.41;;;0.07;100.00
5996;BME280;3026;53.612;7.278;2024-01-07T02:55:46;102185.28;;;0.07;100.00
5996;BME280;3026;53.612;7.278;2024-01-07T02:58:14;102186.13;;;0.08;100.00
5996;BME280;3026;53.612;7.278;2024-01-07T03:00:42;102187.88;;;0.09;100.00
5996;BME280;3026;53.612;7.278;2024-01-07T03:03:11;102189.63;;;0.10;100.00
5996;BME280;3026;53.612;7.278;2024-01-07T03:05:38;102193.25;;;0.09;100.00
5996;BME280;3026;53.612;7.278;2024-01-07T03:08:10;102194.97;;;0.10;100.00
5996;BME280;3026;53.612;7.278;2024-01-07T03:10:37;102198.47;;;0.12;100.00
5996;BME280;3026;53.612;7.278;2024-01-07T03:13:05;102200.34;;;0.10;100.00
5996;BME280;3026;53.612;7.278;2024-01-07T03:15:32;102202.22;;;0.08;100.00
5996;BME280;3026;53.612;7.278;2024-01-07T03:18:02;102204.13;;;0.06;100.00
5996;BME280;3026;53.612;7.278;2024-01-07T03:20:29;102212.16;;;0.06;100.00
5996;BME280;3026;53.612;7.278;2024-01-07T03:22:58;102222.03;;;0.05;100.00
5996;BME280;3026;53.612;7.278;2024-01-07T03:25:26;102219.34;;;0.05;100.00
5996;BME280;3026;53.612;7.278;2024-01-07T03:27:54;102228.25;;;0.06;100.00
5996;BME280;3026;53.612;7.278;2024-01-07T03:30:22;102229.06;;;0.08;100.00
5996;BME280;3026;53.612;7.278;2024-01-07T03:32:49;102234.41;;;0.08;100.00
5996;BME280;3026;53.612;7.278;2024-01-07T03:35:18;102237.09;;;0.08;100.00
5996;BME280;3026;53.612;7.278;2024-01-07T03:37:46;102252.25;;;0.09;100.00
5996;BME280;3026;53.612;7.278;2024-01-07T03:40:13;102239.63;;;0.11;100.00
5996;BME280;3026;53.612;7.278;2024-01-07T03:42:41;102247.69;;;0.11;100.00
5996;BME280;3026;53.612;7.278;2024-01-07T03:45:09;102254.81;;;0.12;100.00
5996;BME280;3026;53.612;7.278;2024-01-07T03:47:37;102252.13;;;0.12;100.00
5996;BME280;3026;53.612;7.278;2024-01-07T03:50:05;102251.22;;;0.11;100.00
5996;BME280;3026;53.612;7.278;2024-01-07T03:52:35;102263.72;;;0.12;100.00
5996;BME280;3026;53.612;7.278;2024-01-07T03:55:03;102275.31;;;0.13;100.00
5996;BME280;3026;53.612;7.278;2024-01-07T03:57:34;102277.06;;;0.14;100.00
5996;BME280;3026;53.612;7.278;2024-01-07T04:00:00;102280.63;;;0.14;100.00
5996;BME280;3026;53.612;7.278;2024-01-07T04:02:28;102286.91;;;0.13;100.00
5996;BME280;3026;53.612;7.278;2024-01-07T04:04:55;102283.31;;;0.14;100.00
5996;BME280;3026;53.612;7.278;2024-01-07T04:07:22;102280.53;;;0.16;100.00
5996;BME280;3026;53.612;7.278;2024-01-07T04:09:51;102291.28;;;0.16;100.00
5996;BME280;3026;53.612;7.278;2024-01-07T04:12:19;102287.66;;;0.17;100.00
5996;BME280;3026;53.612;7.278;2024-01-07T04:14:46;102294.75;;;0.18;100.00
5996;BME280;3026;53.612;7.278;2024-01-07T04:17:14;102298.22;;;0.20;100.00
5996;BME280;3026;53.612;7.278;2024-01-07T04:19:41;102297.28;;;0.21;100.00
5996;BME280;3026;53.612;7.278;2024-01-07T04:22:08;102293.72;;;0.20;100.00
5996;BME280;3026;53.612;7.278;2024-01-07T04:24:36;102300.13;;;0.18;100.00
5996;BME280;3026;53.612;7.278;2024-01-07T04:27:07;102310.69;;;0.21;100.00
5996;BME280;3026;53.612;7.278;2024-01-07T04:29:34;102323.16;;;0.22;100.00
5996;BME280;3026;53.612;7.278;2024-01-07T04:32:01;102323.16;;;0.22;100.00
5996;BME280;3026;53.612;7.278;2024-01-07T04:34:28;102326.78;;;0.21;100.00
5996;BME280;3026;53.612;7.278;2024-01-07T04:36:57;102325.06;;;0.20;100.00
5996;BME280;3026;53.612;7.278;2024-01-07T04:39:24;102328.53;;;0.22;100.00
5996;BME280;3026;53.612;7.278;2024-01-07T04:41:52;102337.53;;;0.21;100.00
5996;BME280;3026;53.612;7.278;2024-01-07T04:44:20;102335.78;;;0.20;100.00
5996;BME280;3026;53.612;7.278;2024-01-07T04:46:49;102341.16;;;0.20;100.00
5996;BME280;3026;53.612;7.278;2024-01-07T04:49:16;102334.03;;;0.19;100.00
5996;BME280;3026;53.612;7.278;2024-01-07T04:51:44;102343.91;;;0.18;100.00
5996;BME280;3026;53.612;7.278;2024-01-07T04:54:12;102342.16;;;0.17;100.00
5996;BME280;3026;53.612;7.278;2024-01-07T04:56:41;102344.78;;;0.19;100.00
5996;BME280;3026;53.612;7.278;2024-01-07T04:59:08;102349.19;;;0.20;100.00
5996;BME280;3026;53.612;7.278;2024-01-07T05:01:41;102357.25;;;0.20;100.00
5996;BME280;3026;53.612;7.278;2024-01-07T05:04:09;102356.31;;;0.21;100.00
5996;BME280;3026;53.612;7.278;2024-01-07T05:06:36;102357.25;;;0.20;100.00
5996;BME280;3026;53.612;7.278;2024-01-07T05:09:04;102364.34;;;0.21;100.00
5996;BME280;3026;53.612;7.278;2024-01-07T05:11:31;102367.09;;;0.19;100.00
5996;BME280;3026;53.612;7.278;2024-01-07T05:13:58;102363.63;;;0.17;100.00
5996;BME280;3026;53.612;7.278;2024-01-07T05:16:26;102372.41;;;0.21;100.00
5996;BME280;3026;53.612;7.278;2024-01-07T05:18:55;102368.84;;;0.20;100.00
5996;BME280;3026;53.612;7.278;2024-01-07T05:21:23;102377.84;;;0.19;100.00
5996;BME280;3026;53.612;7.278;2024-01-07T05:23:57;102381.38;;;0.20;100.00
5996;BME280;3026;53.612;7.278;2024-01-07T05:26:24;102381.47;;;0.18;100.00
5996;BME280;3026;53.612;7.278;2024-01-07T05:28:53;102384.06;;;0.20;100.00
5996;BME280;3026;53.612;7.278;2024-01-07T05:31:20;102385.81;;;0.21;100.00
5996;BME280;3026;53.612;7.278;2024-01-07T05:33:47;102391.97;;;0.23;100.00
5996;BME280;3026;53.612;7.278;2024-01-07T05:36:16;102391.06;;;0.24;100.00
5996;BME280;3026;53.612;7.278;2024-01-07T05:38:46;102403.53;;;0.25;100.00
5996;BME280;3026;53.612;7.278;2024-01-07T05:41:13;102403.53;;;0.25;100.00
5996;BME280;3026;53.612;7.278;2024-01-07T05:43:40;102401.78;;;0.24;100.00
5996;BME280;3026;53.612;7.278;2024-01-07T05:46:07;102407.16;;;0.24;100.00
5996;BME280;3026;53.612;7.278;2024-01-07T05:48:41;102408.91;;;0.25;100.00
5996;BME280;3026;53.612;7.278;2024-01-07T05:51:09;102412.38;;;0.27;100.00
5996;BME280;3026;53.612;7.278;2024-01-07T05:53:39;102414.25;;;0.25;100.00
5996;BME280;3026;53.612;7.278;2024-01-07T05:56:06;102414.25;;;0.25;100.00
5996;BME280;3026;53.612;7.278;2024-01-07T05:58:37;102424.84;;;0.28;100.00
5996;BME280;3026;53.612;7.278;2024-01-07T06:01:09;102430.22;;;0.28;100.00
5996;BME280;3026;53.612;7.278;2024-01-07T06:03:37;102434.66;;;0.29;100.00
5996;BME280;3026;53.612;7.278;2024-01-07T06:06:04;102435.59;;;0.28;100.00
5996;BME280;3026;53.612;7.278;2024-01-07T06:08:33;102440.88;;;0.29;100.00
5996;BME280;3026;53.612;7.278;2024-01-07T06:11:01;102442.69;;;0.29;100.00
5996;BME280;3026;53.612;7.278;2024-01-07T06:13:28;102449.81;;;0.30;100.00
5996;BME280;3026;53.612;7.278;2024-01-07T06:15:57;102442.63;;;0.31;100.00
5996;BME280;3026;53.612;7.278;2024-01-07T06:18:26;102455.97;;;0.32;100.00
5996;BME280;3026;53.612;7.278;2024-01-07T06:20:54;102451.41;;;0.34;100.00
5996;BME280;3026;53.612;7.278;2024-01-07T06:23:22;102443.41;;;0.33;100.00
5996;BME280;3026;53.612;7.278;2024-01-07T06:25:49;102457.63;;;0.35;100.00
5996;BME280;3026;53.612;7.278;2024-01-07T06:28:17;102460.28;;;0.36;100.00
5996;BME280;3026;53.612;7.278;2024-01-07T06:30:45;102471.97;;;0.35;100.00
5996;BME280;3026;53.612;7.278;2024-01-07T06:33:12;102474.63;;;0.35;100.00
5996;BME280;3026;53.612;7.278;2024-01-07T06:35:40;102484.44;;;0.36;100.00
5996;BME280;3026;53.612;7.278;2024-01-07T06:38:08;102487.13;;;0.36;100.00
5996;BME280;3026;53.612;7.278;2024-01-07T06:40:35;102489.72;;;0.38;100.00
5996;BME280;3026;53.612;7.278;2024-01-07T06:43:04;102499.59;;;0.37;100.00
5996;BME280;3026;53.612;7.278;2024-01-07T06:45:33;102494.22;;;0.37;100.00
5996;BME280;3026;53.612;7.278;2024-01-07T06:48:00;102503.06;;;0.39;100.00
5996;BME280;3026;53.612;7.278;2024-01-07T06:50:27;102499.44;;;0.40;100.00
5996;BME280;3026;53.612;7.278;2024-01-07T06:52:54;102510.19;;;0.40;100.00
5996;BME280;3026;53.612;7.278;2024-01-07T06:55:22;102516.41;;;0.41;100.00
5996;BME280;3026;53.612;7.278;2024-01-07T06:57:55;102513.81;;;0.39;100.00
5996;BME280;3026;53.612;7.278;2024-01-07T07:00:22;102521.84;;;0.39;100.00
5996;BME280;3026;53.612;7.278;2024-01-07T07:02:52;102528.09;;;0.40;100.00
5996;BME280;3026;53.612;7.278;2024-01-07T07:05:19;102537.03;;;0.40;100.00
5996;BME280;3026;53.612;7.278;2024-01-07T07:07:47;102536.94;;;0.42;100.00
5996;BME280;3026;53.612;7.278;2024-01-07T07:10:15;102542.31;;;0.42;100.00
5996;BME280;3026;53.612;7.278;2024-01-07T07:12:42;102541.38;;;0.43;100.00
5996;BME280;3026;53.612;7.278;2024-01-07T07:15:09;102547.63;;;0.43;100.00
5996;BME280;3026;53.612;7.278;2024-01-07T07:17:38;102544.00;;;0.44;100.00
5996;BME280;3026;53.612;7.278;2024-01-07T07:20:10;102548.41;;;0.45;100.00
5996;BME280;3026;53.612;7.278;2024-01-07T07:22:37;102547.63;;;0.43;100.00
5996;BME280;3026;53.612;7.278;2024-01-07T07:25:04;102550.31;;;0.43;100.00
5996;BME280;3026;53.612;7.278;2024-01-07T07:27:32;102556.59;;;0.42;100.00
5996;BME280;3026;53.612;7.278;2024-01-07T07:29:59;102565.47;;;0.44;100.00
5996;BME280;3026;53.612;7.278;2024-01-07T07:32:27;102560.09;;;0.44;100.00
5996;BME280;3026;53.612;7.278;2024-01-07T07:34:57;102569.09;;;0.43;100.00
5996;BME280;3026;53.612;7.278;2024-01-07T07:37:28;102572.72;;;0.42;100.00
5996;BME280;3026;53.612;7.278;2024-01-07T07:39:56;102573.50;;;0.44;100.00
5996;BME280;3026;53.612;7.278;2024-01-07T07:42:25;102577.94;;;0.45;100.00
5996;BME280;3026;53.612;7.278;2024-01-07T07:44:52;102581.47;;;0.47;100.00
5996;BME280;3026;53.612;7.278;2024-01-07T07:47:22;102588.56;;;0.48;100.00
5996;BME280;3026;53.612;7.278;2024-01-07T07:49:49;102584.06;;;0.49;100.00
5996;BME280;3026;53.612;7.278;2024-01-07T07:52:18;102595.69;;;0.49;100.00
5996;BME280;3026;53.612;7.278;2024-01-07T07:54:49;102592.19;;;0.47;100.00
5996;BME280;3026;53.612;7.278;2024-01-07T07:57:19;102595.69;;;0.49;100.00
5996;BME280;3026;53.612;7.278;2024-01-07T07:59:46;102601.06;;;0.49;100.00
5996;BME280;3026;53.612;7.278;2024-01-07T08:02:15;102608.16;;;0.50;100.00
5996;BME280;3026;53.612;7.278;2024-01-07T08:04:42;102609.91;;;0.51;100.00
5996;BME280;3026;53.612;7.278;2024-01-07T08:07:10;102608.97;;;0.52;100.00
5996;BME280;3026;53.612;7.278;2024-01-07T08:09:37;102617.00;;;0.52;100.00
5996;BME280;3026;53.612;7.278;2024-01-07T08:12:12;102610.84;;;0.50;100.00
5996;BME280;3026;53.612;7.278;2024-01-07T08:14:39;102607.34;;;0.48;100.00
5996;BME280;3026;53.612;7.278;2024-01-07T08:17:07;102611.72;;;0.51;100.00
5996;BME280;3026;53.612;7.278;2024-01-07T08:19:46;102617.16;;;0.49;100.00
5996;BME280;3026;53.612;7.278;2024-01-07T08:22:22;102611.78;;;0.49;100.00
5996;BME280;3026;53.612;7.278;2024-01-07T08:24:50;102618.03;;;0.50;100.00
5996;BME280;3026;53.612;7.278;2024-01-07T08:27:20;102626.88;;;0.52;100.00
5996;BME280;3026;53.612;7.278;2024-01-07T08:29:47;102629.50;;;0.53;100.00
5996;BME280;3026;53.612;7.278;2024-01-07T08:32:18;102624.28;;;0.50;100.00
5996;BME280;3026;53.612;7.278;2024-01-07T08:34:48;102632.38;;;0.49;100.00
5996;BME280;3026;53.612;7.278;2024-01-07T08:37:15;102640.50;;;0.47;100.00
5996;BME280;3026;53.612;7.278;2024-01-07T08:39:42;102640.59;;;0.44;100.00
5996;BME280;3026;53.612;7.278;2024-01-07T08:42:09;102642.34;;;0.45;100.00
5996;BME280;3026;53.612;7.278;2024-01-07T08:44:38;102648.59;;;0.46;100.00
5996;BME280;3026;53.612;7.278;2024-01-07T08:47:06;102644.09;;;0.46;100.00
5996;BME280;3026;53.612;7.278;2024-01-07T08:49:33;102654.84;;;0.46;100.00
5996;BME280;3026;53.612;7.278;2024-01-07T08:52:01;102660.34;;;0.43;100.00
5996;BME280;3026;53.612;7.278;2024-01-07T08:54:29;102660.47;;;0.40;100.00
5996;BME280;3026;53.612;7.278;2024-01-07T08:56:56;102658.88;;;0.36;100.00
5996;BME280;3026;53.612;7.278;2024-01-07T08:59:24;102667.84;;;0.35;100.00
5996;BME280;3026;53.612;7.278;2024-01-07T09:01:55;102671.50;;;0.33;100.00
5996;BME280;3026;53.612;7.278;2024-01-07T09:04:24;102676.00;;;0.32;100.00
5996;BME280;3026;53.612;7.278;2024-01-07T09:06:51;102694.78;;;0.32;100.00
5996;BME280;3026;53.612;7.278;2024-01-07T09:09:18;102694.91;;;0.29;100.00
5996;BME280;3026;53.612;7.278;2024-01-07T09:11:46;102694.13;;;0.27;100.00
5996;BME280;3026;53.612;7.278;2024-01-07T09:14:13;102691.44;;;0.27;100.00
5996;BME280;3026;53.612;7.278;2024-01-07T09:16:42;102695.94;;;0.26;100.00
5996;BME280;3026;53.612;7.278;2024-01-07T09:19:12;102705.78;;;0.26;100.00
5996;BME280;3026;53.612;7.278;2024-01-07T09:21:39;102708.47;;;0.26;100.00
5996;BME280;3026;53.612;7.278;2024-01-07T09:24:06;102703.03;;;0.27;100.00
5996;BME280;3026;53.612;7.278;2024-01-07T09:26:34;102709.16;;;0.31;100.00
5996;BME280;3026;53.612;7.278;2024-01-07T09:29:02;102703.78;;;0.31;100.00
5996;BME280;3026;53.612;7.278;2024-01-07T09:31:29;102709.00;;;0.34;100.00
5996;BME280;3026;53.612;7.278;2024-01-07T09:33:57;102712.75;;;0.30;100.00
5996;BME280;3026;53.612;7.278;2024-01-07T09:36:26;102716.16;;;0.35;100.00
5996;BME280;3026;53.612;7.278;2024-01-07T09:38:53;102729.50;;;0.37;100.00
5996;BME280;3026;53.612;7.278;2024-01-07T09:41:20;102724.16;;;0.37;100.00
5996;BME280;3026;53.612;7.278;2024-01-07T09:43:48;102726.75;;;0.38;100.00
5996;BME280;3026;53.612;7.278;2024-01-07T09:46:16;102733.88;;;0.39;100.00
5996;BME280;3026;53.612;7.278;2024-01-07T09:48:43;102728.44;;;0.41;100.00
5996;BME280;3026;53.612;7.278;2024-01-07T09:51:11;102733.75;;;0.42;100.00
5996;BME280;3026;53.612;7.278;2024-01-07T09:53:43;102733.63;;;0.45;100.00
5996;BME280;3026;53.612;7.278;2024-01-07T09:56:19;102739.84;;;0.46;100.00
5996;BME280;3026;53.612;7.278;2024-01-07T09:58:47;102735.31;;;0.48;100.00
5996;BME280;3026;53.612;7.278;2024-01-07T10:01:15;102745.00;;;0.52;100.00
5996;BME280;3026;53.612;7.278;2024-01-07T10:03:44;102738.63;;;0.54;100.00
5996;BME280;3026;53.612;7.278;2024-01-07T10:06:11;102747.47;;;0.56;100.00
5996;BME280;3026;53.612;7.278;2024-01-07T10:08:41;102751.00;;;0.58;100.00
5996;BME280;3026;53.612;7.278;2024-01-07T10:11:09;102747.25;;;0.63;100.00
5996;BME280;3026;53.612;7.278;2024-01-07T10:13:37;102755.03;;;0.69;100.00
5996;BME280;3026;53.612;7.278;2024-01-07T10:16:07;102748.63;;;0.73;100.00
5996;BME280;3026;53.612;7.278;2024-01-07T10:18:34;102750.16;;;0.78;100.00
5996;BME280;3026;53.612;7.278;2024-01-07T10:21:06;102749.06;;;0.84;100.00
5996;BME280;3026;53.612;7.278;2024-01-07T10:23:34;102750.59;;;0.90;100.00
5996;BME280;3026;53.612;7.278;2024-01-07T10:26:03;102753.91;;;0.96;100.00
5996;BME280;3026;53.612;7.278;2024-01-07T10:28:31;102750.97;;;1.02;100.00
5996;BME280;3026;53.612;7.278;2024-01-07T10:30:59;102760.25;;;1.15;100.00
5996;BME280;3026;53.612;7.278;2024-01-07T10:33:30;102756.13;;;1.29;100.00
5996;BME280;3026;53.612;7.278;2024-01-07T10:36:01;102766.13;;;1.45;100.00
5996;BME280;3026;53.612;7.278;2024-01-07T10:38:29;102764.84;;;1.54;100.00
5996;BME280;3026;53.612;7.278;2024-01-07T10:40:58;102755.31;;;1.67;100.00
5996;BME280;3026;53.612;7.278;2024-01-07T10:43:29;102768.72;;;1.88;100.00
5996;BME280;3026;53.612;7.278;2024-01-07T10:46:00;102771.09;;;2.14;100.00
5996;BME280;3026;53.612;7.278;2024-01-07T10:48:31;102763.31;;;2.27;100.00
5996;BME280;3026;53.612;7.278;2024-01-07T10:51:00;102774.88;;;2.29;100.00
5996;BME280;3026;53.612;7.278;2024-01-07T10:53:33;102767.03;;;2.43;100.00
5996;BME280;3026;53.612;7.278;2024-01-07T10:56:03;102764.84;;;2.32;100.00
5996;BME280;3026;53.612;7.278;2024-01-07T10:58:38;102761.50;;;2.27;100.00
5996;BME280;3026;53.612;7.278;2024-01-07T11:01:09;102781.28;;;2.26;100.00
5996;BME280;3026;53.612;7.278;2024-01-07T11:03:42;102766.72;;;2.30;100.00
5996;BME280;3026;53.612;7.278;2024-01-07T11:06:16;102775.31;;;2.39;100.00
5996;BME280;3026;53.612;7.278;2024-01-07T11:08:51;102773.16;;;2.47;100.00
5996;BME280;3026;53.612;7.278;2024-01-07T11:11:25;102779.38;;;2.66;100.00
5996;BME280;3026;53.612;7.278;2024-01-07T11:13:55;102782.13;;;2.83;100.00
5996;BME280;3026;53.612;7.278;2024-01-07T11:16:41;102783.19;;;2.98;100.00
5996;BME280;3026;53.612;7.278;2024-01-07T11:19:09;102790.53;;;3.13;100.00
5996;BME280;3026;53.612;7.278;2024-01-07T11:21:36;102785.53;;;3.23;100.00
5996;BME280;3026;53.612;7.278;2024-01-07T11:24:04;102790.22;;;3.37;100.00
5996;BME280;3026;53.612;7.278;2024-01-07T11:26:31;102789.97;;;3.41;100.00
5996;BME280;3026;53.612;7.278;2024-01-07T11:29:01;102787.13;;;3.27;100.00
5996;BME280;3026;53.612;7.278;2024-01-07T11:31:51;102786.63;;;3.02;100.00
5996;BME280;3026;53.612;7.278;2024-01-07T11:34:40;102785.97;;;2.97;100.00
5996;BME280;3026;53.612;7.278;2024-01-07T11:37:10;102786.00;;;3.14;100.00
5996;BME280;3026;53.612;7.278;2024-01-07T11:39:42;102786.47;;;3.05;100.00
5996;BME280;3026;53.612;7.278;2024-01-07T11:42:09;102793.06;;;2.80;100.00
5996;BME280;3026;53.612;7.278;2024-01-07T11:44:45;102792.50;;;2.55;100.00
5996;BME280;3026;53.612;7.278;2024-01-07T11:47:12;102789.72;;;2.38;100.00
5996;BME280;3026;53.612;7.278;2024-01-07T11:49:42;102787.53;;;2.27;100.00
5996;BME280;3026;53.612;7.278;2024-01-07T11:52:10;102785.34;;;2.16;100.00
5996;BME280;3026;53.612;7.278;2024-01-07T11:54:42;102790.50;;;2.02;100.00
5996;BME280;3026;53.612;7.278;2024-01-07T11:57:10;102793.00;;;1.86;100.00
5996;BME280;3026;53.612;7.278;2024-01-07T11:59:39;102791.06;;;1.90;100.00
5996;BME280;3026;53.612;7.278;2024-01-07T12:02:07;102793.44;;;1.96;100.00
5996;BME280;3026;53.612;7.278;2024-01-07T12:04:35;102792.38;;;2.00;100.00
5996;BME280;3026;53.612;7.278;2024-01-07T12:07:04;102793.03;;;2.05;100.00
5996;BME280;3026;53.612;7.278;2024-01-07T12:09:31;102785.91;;;2.04;100.00
5996;BME280;3026;53.612;7.278;2024-01-07T12:11:59;102796.53;;;2.07;100.00
5996;BME280;3026;53.612;7.278;2024-01-07T12:14:27;102782.16;;;2.27;100.00
5996;BME280;3026;53.612;7.278;2024-01-07T12:16:58;102783.75;;;2.50;100.00
5996;BME280;3026;53.612;7.278;2024-01-07T12:19:25;102788.41;;;2.65;100.00
5996;BME280;3026;53.612;7.278;2024-01-07T12:22:03;102788.63;;;2.79;100.00
5996;BME280;3026;53.612;7.278;2024-01-07T12:24:30;102789.59;;;2.78;100.00
5996;BME280;3026;53.612;7.278;2024-01-07T12:27:03;102787.78;;;2.60;100.00
5996;BME280;3026;53.612;7.278;2024-01-07T12:29:31;102782.19;;;2.46;100.00
5996;BME280;3026;53.612;7.278;2024-01-07T12:32:05;102786.41;;;2.32;100.00
5996;BME280;3026;53.612;7.278;2024-01-07T12:34:36;102797.75;;;2.20;100.00
5996;BME280;3026;53.612;7.278;2024-01-07T12:37:06;102796.25;;;2.13;100.00
5996;BME280;3026;53.612;7.278;2024-01-07T12:39:33;102800.31;;;2.03;100.00
5996;BME280;3026;53.612;7.278;2024-01-07T12:42:03;102794.47;;;1.93;100.00
5996;BME280;3026;53.612;7.278;2024-01-07T12:44:36;102794.00;;;1.84;100.00
5996;BME280;3026;53.612;7.278;2024-01-07T12:47:05;102799.69;;;1.78;100.00
5996;BME280;3026;53.612;7.278;2024-01-07T12:49:33;102802.38;;;1.78;100.00
5996;BME280;3026;53.612;7.278;2024-01-07T12:52:07;102803.31;;;1.77;100.00
5996;BME280;3026;53.612;7.278;2024-01-07T12:54:34;102798.03;;;1.73;100.00
5996;BME280;3026;53.612;7.278;2024-01-07T12:57:04;102805.19;;;1.74;100.00
5996;BME280;3026;53.612;7.278;2024-01-07T12:59:31;102808.69;;;1.77;100.00
5996;BME280;3026;53.612;7.278;2024-01-07T13:01:59;102808.69;;;1.77;100.00
5996;BME280;3026;53.612;7.278;2024-01-07T13:04:30;102810.56;;;1.74;100.00
5996;BME280;3026;53.612;7.278;2024-01-07T13:07:02;102815.88;;;1.76;100.00
5996;BME280;3026;53.612;7.278;2024-01-07T13:09:29;102809.88;;;1.69;100.00
5996;BME280;3026;53.612;7.278;2024-01-07T13:12:20;102809.34;;;1.61;100.00
5996;BME280;3026;53.612;7.278;2024-01-07T13:14:47;102816.75;;;1.56;100.00
5996;BME280;3026;53.612;7.278;2024-01-07T13:17:16;102796.50;;;1.48;100.00
5996;BME280;3026;53.612;7.278;2024-01-07T13:19:46;102809.88;;;1.49;100.00